Historique des mesures à Cassis (13260), France
Quotidien Résumé Janvier 11, 2017 Unités:  Métrique    US   Métrique/US
« Précédent (Jour)
Suivant (Jour) »
Quotidien Hebdomadaire Mensuel Annuel Période au choix
  Maximum: Minimum: Moyenne:
Température: TemperatureC °C 4.8 °C 7.2 °C
Point de rosée: DewpointC °C 0.7 °C 1.6 °C
Humidité: Humidity % 55 % 65 %
Vitesse du vent: 0 km/h 0 km/h 2.1 km/h
Rafales: 0 km/h - -
Vent:- - West
Pression: PressurehPa hPa 1008.7 hPa -
Précipitations: 0.0 mm    
Historical Graphs
 
 
Mesures pour : Janvier 11, 2017
Heure Temperature Point de rosée Pression Vent Vitesse du vent Rafales Humidité Pluie (par heure) Conditions
TemperatureC °C DewpointC °C PressurehPa hPa Calm     Humidity % HourlyPrecipMM mm SoftwareType W/m2
00:11 6.8 °C 2.7 °C 1008.7 hPa Calm     75 % 0.0 mm open2300-1.11 W/m2
01:10 6.9 °C 2.6 °C 1010.0 hPa Calm     74 % 0.0 mm open2300-1.11 W/m2
02:11 6.4 °C 2.1 °C 1010.7 hPa Calm     74 % 0.0 mm open2300-1.11 W/m2
03:10 6.2 °C 1.9 °C 1011.4 hPa Calm     74 % 0.0 mm open2300-1.11 W/m2
04:11 6.1 °C 1.8 °C 1012.1 hPa Calm     74 % 0.0 mm open2300-1.11 W/m2
05:10 5.5 °C 1.4 °C 1013.1 hPa Calm     75 % 0.0 mm open2300-1.11 W/m2
06:11 5.2 °C 0.9 °C 1013.4 hPa Calm     74 % 0.0 mm open2300-1.11 W/m2
07:10 4.8 °C 0.7 °C 1014.1 hPa Calm     75 % 0.0 mm open2300-1.11 W/m2
08:11 4.8 °C 0.9 °C 1014.4 hPa Calm     76 % 0.0 mm open2300-1.11 W/m2
09:10 5.5 °C 1.4 °C 1015.1 hPa Calm     75 % 0.0 mm open2300-1.11 W/m2
10:11 6.5 °C 2.0 °C 1016.5 hPa Calm     73 % 0.0 mm open2300-1.11 W/m2
11:10 7.1 °C 2.2 °C 1016.5 hPa NW 10.3 km/h 10.3 km/h 71 % 0.0 mm open2300-1.11 W/m2
12:11 8.2 °C 1.3 °C 1015.8 hPa Calm   9.3 km/h 62 % 0.0 mm open2300-1.11 W/m2
13:10 8.7 °C 2.2 °C 1015.5 hPa North 3.4 km/h 16.3 km/h 64 % 0.0 mm open2300-1.11 W/m2
14:11 9.5 °C 1.4 °C 1015.5 hPa NW 12.7 km/h 15.6 km/h 57 % 0.0 mm open2300-1.11 W/m2
15:10 9.5 °C 0.9 °C 1015.5 hPa NW 2.3 km/h 10.3 km/h 55 % 0.0 mm open2300-1.11 W/m2
16:11 9.9 °C 1.2 °C 1015.8 hPa NNW 14 km/h 14 km/h 55 % 0.0 mm open2300-1.11 W/m2
17:10 9.8 °C 1.7 °C 1015.8 hPa Calm     57 % 0.0 mm open2300-1.11 W/m2
18:12 8.5 °C 1.4 °C 1015.8 hPa Calm   4.2 km/h 61 % 0.0 mm open2300-1.11 W/m2
19:10 8.6 °C 1.9 °C 1016.1 hPa NW 4.2 km/h 8.9 km/h 63 % 0.0 mm open2300-1.11 W/m2
20:11 9.2 °C 2.1 °C 1015.8 hPa Calm   6.9 km/h 61 % 0.0 mm open2300-1.11 W/m2
21:10 9.4 °C 2.1 °C 1015.5 hPa WNW 2.9 km/h 13.2 km/h 60 % 0.0 mm open2300-1.11 W/m2
22:11 9.4 °C 2.5 °C 1015.8 hPa Calm   1.8 km/h 62 % 0.0 mm open2300-1.11 W/m2
Observations météo à CASSIS
WU-History script by Weather Underground - 1 mb